Time;durP1;ratioP1;P1;durP2;ratioP2;P2;SDS_P1;SDS_P2;PMS_P1;PMS_P2;Temp;Humidity;BMP_temperature;BMP_pressure;BME280_temperature;BME280_humidity;BME280_pressure;Samples;Min_cycle;Max_cycle;Signal;HPM_P1;HPM_P2
2021/01/10 00:00:27;;;;;;;145.60;28.08;;;;;;;;;;4989914;28;20612;-59
2021/01/10 00:02:53;;;;;;;136.55;27.52;;;;;;;;;;4981646;28;20439;-59
2021/01/10 00:05:25;;;;;;;132.00;26.25;;;;;;;;;;4984702;28;20042;-60
2021/01/10 00:07:52;;;;;;;147.77;27.75;;;;;;;;;;4983369;28;20430;-59
2021/01/10 00:10:18;;;;;;;120.88;26.73;;;;;;;;;;4984414;28;20394;-60
2021/01/10 00:12:46;;;;;;;150.50;27.95;;;;;;;;;;4984241;28;20090;-59
2021/01/10 00:15:13;;;;;;;129.18;27.40;;;;;;;;;;4986386;28;20048;-59
2021/01/10 00:17:40;;;;;;;134.43;27.85;;;;;;;;;;4984877;28;20132;-60
2021/01/10 00:20:07;;;;;;;135.65;26.88;;;;;;;;;;4982908;28;20046;-59
2021/01/10 00:22:33;;;;;;;139.60;27.00;;;;;;;;;;4987321;28;20608;-60
2021/01/10 00:24:59;;;;;;;137.00;28.75;;;;;;;;;;4990193;28;20530;-60
2021/01/10 00:27:26;;;;;;;132.57;27.60;;;;;;;;;;4987812;28;20049;-60
2021/01/10 00:29:52;;;;;;;140.93;26.63;;;;;;;;;;4988432;28;20044;-60
2021/01/10 00:32:19;;;;;;;137.75;29.45;;;;;;;;;;4986701;28;20352;-59
2021/01/10 00:34:45;;;;;;;145.82;28.73;;;;;;;;;;4986143;28;20042;-59
2021/01/10 00:37:18;;;;;;;133.32;30.67;;;;;;;;;;4991075;28;20588;-60
2021/01/10 00:39:45;;;;;;;157.85;31.17;;;;;;;;;;4987763;28;20645;-59
2021/01/10 00:42:12;;;;;;;161.05;32.78;;;;;;;;;;4990441;28;20076;-59
2021/01/10 00:44:39;;;;;;;152.77;30.02;;;;;;;;;;4980628;28;20496;-60
2021/01/10 00:47:05;;;;;;;142.38;31.88;;;;;;;;;;4981839;28;20046;-60
2021/01/10 00:49:31;;;;;;;157.38;28.73;;;;;;;;;;4980998;28;20053;-59
2021/01/10 00:51:57;;;;;;;153.68;30.92;;;;;;;;;;4979292;28;20053;-60
2021/01/10 00:54:23;;;;;;;138.27;29.10;;;;;;;;;;4986774;28;20050;-60
2021/01/10 00:56:49;;;;;;;144.15;30.10;;;;;;;;;;4991176;28;20402;-60
2021/01/10 00:59:15;;;;;;;158.02;29.73;;;;;;;;;;4989754;28;20045;-59
2021/01/10 01:01:42;;;;;;;177.85;29.95;;;;;;;;;;4984948;28;20416;-59
2021/01/10 01:04:08;;;;;;;135.52;27.08;;;;;;;;;;4992145;28;20120;-59
2021/01/10 01:06:34;;;;;;;152.35;30.13;;;;;;;;;;4991075;28;20037;-59
2021/01/10 01:09:00;;;;;;;167.80;31.30;;;;;;;;;;4986330;28;20038;-59
2021/01/10 01:11:26;;;;;;;156.63;31.48;;;;;;;;;;4987972;28;20038;-59
2021/01/10 01:13:52;;;;;;;161.35;33.42;;;;;;;;;;4984775;28;20026;-59
2021/01/10 01:16:18;;;;;;;160.85;31.13;;;;;;;;;;4992891;28;20030;-59
2021/01/10 01:18:44;;;;;;;160.45;30.83;;;;;;;;;;4984305;28;20749;-59
2021/01/10 01:21:14;;;;;;;169.27;33.45;;;;;;;;;;4986513;28;20034;-59
2021/01/10 01:23:40;;;;;;;194.20;31.85;;;;;;;;;;4983237;28;20045;-59
2021/01/10 01:26:06;;;;;;;176.68;31.58;;;;;;;;;;4985669;28;20121;-59
2021/01/10 01:28:32;;;;;;;151.52;31.15;;;;;;;;;;4991941;28;20041;-59
2021/01/10 01:30:58;;;;;;;154.23;31.10;;;;;;;;;;4988606;28;20809;-59
2021/01/10 01:33:24;;;;;;;169.98;29.98;;;;;;;;;;4991804;28;20044;-59
2021/01/10 01:35:50;;;;;;;174.82;32.83;;;;;;;;;;4992722;28;20487;-60
2021/01/10 01:38:16;;;;;;;160.15;30.30;;;;;;;;;;4985916;28;20399;-59
2021/01/10 01:40:42;;;;;;;141.15;29.95;;;;;;;;;;4995055;28;20037;-59
2021/01/10 01:43:08;;;;;;;166.02;30.88;;;;;;;;;;4990475;28;20057;-59
2021/01/10 01:45:34;;;;;;;143.02;30.20;;;;;;;;;;4987030;28;20037;-59
2021/01/10 01:48:01;;;;;;;156.70;30.83;;;;;;;;;;4986419;28;20084;-59
2021/01/10 01:50:27;;;;;;;147.93;29.02;;;;;;;;;;4989323;28;20046;-59
2021/01/10 01:52:53;;;;;;;147.32;29.92;;;;;;;;;;4982020;28;20454;-59
2021/01/10 01:55:19;;;;;;;152.00;30.50;;;;;;;;;;4987409;28;20045;-59
2021/01/10 01:57:45;;;;;;;166.73;30.35;;;;;;;;;;4990938;28;20034;-58
2021/01/10 02:00:11;;;;;;;162.57;30.17;;;;;;;;;;4989297;28;20096;-58
2021/01/10 02:02:37;;;;;;;162.10;31.70;;;;;;;;;;4989941;28;20119;-59
2021/01/10 02:05:12;;;;;;;143.55;31.10;;;;;;;;;;4988564;28;20154;-59
2021/01/10 02:07:41;;;;;;;166.18;31.48;;;;;;;;;;4989514;28;20385;-59
2021/01/10 02:10:09;;;;;;;176.68;32.17;;;;;;;;;;4991045;28;20093;-59
2021/01/10 02:12:36;;;;;;;187.00;32.92;;;;;;;;;;4995738;28;20042;-59
2021/01/10 02:15:07;;;;;;;164.90;31.75;;;;;;;;;;4990392;28;20053;-59
2021/01/10 02:17:34;;;;;;;191.20;33.17;;;;;;;;;;4993430;28;20092;-59
2021/01/10 02:20:08;;;;;;;167.93;31.48;;;;;;;;;;4993981;28;20022;-59
2021/01/10 02:22:39;;;;;;;172.95;32.13;;;;;;;;;;4990174;28;20164;-59
2021/01/10 02:25:06;;;;;;;173.65;31.20;;;;;;;;;;4993901;28;20037;-59
2021/01/10 02:27:32;;;;;;;177.20;30.35;;;;;;;;;;4997368;28;20037;-59
2021/01/10 02:29:59;;;;;;;176.98;30.80;;;;;;;;;;4994555;28;20037;-59
2021/01/10 02:32:26;;;;;;;186.55;32.88;;;;;;;;;;4996080;28;20064;-59
2021/01/10 02:34:53;;;;;;;171.20;33.15;;;;;;;;;;4993597;28;20454;-59
2021/01/10 02:37:37;;;;;;;184.02;31.00;;;;;;;;;;4988929;28;20038;-59
2021/01/10 02:40:08;;;;;;;170.48;30.35;;;;;;;;;;4993730;28;20042;-59
2021/01/10 02:42:36;;;;;;;196.18;30.27;;;;;;;;;;4994775;28;20033;-59
2021/01/10 02:45:08;;;;;;;165.93;30.73;;;;;;;;;;4993785;28;20114;-59
2021/01/10 02:47:35;;;;;;;170.32;30.08;;;;;;;;;;4986904;28;20053;-59
2021/01/10 02:50:01;;;;;;;188.02;31.75;;;;;;;;;;4995232;28;20046;-59
2021/01/10 02:52:26;;;;;;;172.60;30.77;;;;;;;;;;4992922;28;20198;-59
2021/01/10 02:54:52;;;;;;;166.85;30.42;;;;;;;;;;4993623;28;20469;-59
2021/01/10 02:57:26;;;;;;;176.32;31.70;;;;;;;;;;4992386;28;20038;-59
2021/01/10 02:59:54;;;;;;;188.75;29.92;;;;;;;;;;4988440;28;20084;-59
2021/01/10 03:02:21;;;;;;;181.20;31.08;;;;;;;;;;4992848;28;20041;-59
2021/01/10 03:04:47;;;;;;;166.90;30.77;;;;;;;;;;4990777;28;20046;-59
2021/01/10 03:07:14;;;;;;;173.20;31.30;;;;;;;;;;4991875;28;20049;-59
2021/01/10 03:09:41;;;;;;;192.35;33.70;;;;;;;;;;4992493;28;20030;-59
2021/01/10 03:12:16;;;;;;;182.60;32.45;;;;;;;;;;4991952;28;20483;-59
2021/01/10 03:14:46;;;;;;;171.30;32.45;;;;;;;;;;4986685;28;20042;-59
2021/01/10 03:17:18;;;;;;;207.23;35.15;;;;;;;;;;4992031;28;20435;-59
2021/01/10 03:19:44;;;;;;;184.63;33.75;;;;;;;;;;4994080;28;20736;-59
2021/01/10 03:22:10;;;;;;;182.98;33.13;;;;;;;;;;4990412;28;20038;-59
2021/01/10 03:24:36;;;;;;;180.98;32.50;;;;;;;;;;4994715;28;20562;-59
2021/01/10 03:27:02;;;;;;;209.82;33.63;;;;;;;;;;4992533;28;20072;-59
2021/01/10 03:29:28;;;;;;;204.73;34.28;;;;;;;;;;4988242;28;20469;-59
2021/01/10 03:31:54;;;;;;;198.25;33.42;;;;;;;;;;4984759;28;20689;-59
2021/01/10 03:34:23;;;;;;;174.48;34.38;;;;;;;;;;4994182;28;20479;-59
2021/01/10 03:36:49;;;;;;;177.80;32.83;;;;;;;;;;4986170;28;20030;-59
2021/01/10 03:39:15;;;;;;;192.13;33.13;;;;;;;;;;4993338;28;20406;-59
2021/01/10 03:41:40;;;;;;;168.48;31.58;;;;;;;;;;4992971;28;20034;-58
2021/01/10 03:44:06;;;;;;;180.30;32.03;;;;;;;;;;4991590;28;20041;-59
2021/01/10 03:46:32;;;;;;;180.38;31.88;;;;;;;;;;4993305;28;20038;-59
2021/01/10 03:48:58;;;;;;;191.40;30.42;;;;;;;;;;4991026;28;20034;-59
2021/01/10 03:51:28;;;;;;;159.38;31.00;;;;;;;;;;4989062;28;20030;-59
2021/01/10 03:53:54;;;;;;;177.52;31.23;;;;;;;;;;4988959;28;20394;-59
2021/01/10 03:56:20;;;;;;;201.27;33.28;;;;;;;;;;4995917;28;20038;-59
2021/01/10 03:58:46;;;;;;;167.35;30.85;;;;;;;;;;4994187;28;20073;-59
2021/01/10 04:01:12;;;;;;;191.50;30.55;;;;;;;;;;4992432;28;20546;-59
2021/01/10 04:03:38;;;;;;;153.88;28.60;;;;;;;;;;4996276;28;20060;-59
2021/01/10 04:06:04;;;;;;;160.05;30.98;;;;;;;;;;4989244;28;20117;-59
2021/01/10 04:08:30;;;;;;;150.55;29.50;;;;;;;;;;4994850;28;20121;-59
2021/01/10 04:10:56;;;;;;;166.05;29.23;;;;;;;;;;4987734;28;20035;-59
2021/01/10 04:13:22;;;;;;;143.60;30.52;;;;;;;;;;4993670;28;20092;-59
2021/01/10 04:15:48;;;;;;;164.13;30.65;;;;;;;;;;4994181;28;20034;-59
2021/01/10 04:18:14;;;;;;;153.63;30.08;;;;;;;;;;4995859;28;20040;-59
2021/01/10 04:20:40;;;;;;;166.90;29.05;;;;;;;;;;4995665;28;20044;-59
2021/01/10 04:23:06;;;;;;;169.93;29.67;;;;;;;;;;4995436;28;20034;-59
2021/01/10 04:25:32;;;;;;;148.90;29.17;;;;;;;;;;4986991;28;20088;-59
2021/01/10 04:27:58;;;;;;;150.57;31.00;;;;;;;;;;4991544;28;20398;-59
2021/01/10 04:30:24;;;;;;;147.50;28.33;;;;;;;;;;4988849;28;20042;-59
2021/01/10 04:32:50;;;;;;;140.25;28.90;;;;;;;;;;4988006;28;20415;-59
2021/01/10 04:35:16;;;;;;;136.13;28.38;;;;;;;;;;4990514;28;20428;-59
2021/01/10 04:37:42;;;;;;;147.50;28.33;;;;;;;;;;4995342;28;20449;-59
2021/01/10 04:40:09;;;;;;;149.13;29.52;;;;;;;;;;4989897;28;20034;-59
2021/01/10 04:42:34;;;;;;;149.43;29.35;;;;;;;;;;4990370;28;20120;-59
2021/01/10 04:45:01;;;;;;;148.75;30.25;;;;;;;;;;4986939;28;20046;-59
2021/01/10 04:47:27;;;;;;;158.13;29.88;;;;;;;;;;4994682;28;20111;-60
2021/01/10 04:49:53;;;;;;;152.98;29.42;;;;;;;;;;4998568;28;20030;-59
2021/01/10 04:52:20;;;;;;;148.15;29.00;;;;;;;;;;4995014;28;20068;-59
2021/01/10 04:54:47;;;;;;;157.52;28.65;;;;;;;;;;4994885;28;20038;-59
2021/01/10 04:57:13;;;;;;;158.82;30.55;;;;;;;;;;4993288;28;20041;-59
2021/01/10 04:59:43;;;;;;;163.35;30.27;;;;;;;;;;4982879;28;20056;-59
2021/01/10 05:02:09;;;;;;;164.48;27.98;;;;;;;;;;4990176;28;20038;-59
2021/01/10 05:04:35;;;;;;;151.63;28.73;;;;;;;;;;4988682;28;20116;-59
2021/01/10 05:07:02;;;;;;;164.25;28.50;;;;;;;;;;4986077;28;20096;-59
2021/01/10 05:09:28;;;;;;;154.18;27.98;;;;;;;;;;4991732;28;20042;-59
2021/01/10 05:11:54;;;;;;;142.60;28.63;;;;;;;;;;4988281;28;20547;-59
2021/01/10 05:14:20;;;;;;;162.93;29.08;;;;;;;;;;4987553;28;20042;-59
2021/01/10 05:16:47;;;;;;;134.00;27.95;;;;;;;;;;4991698;28;20756;-59
2021/01/10 05:19:17;;;;;;;141.95;28.25;;;;;;;;;;4991701;28;20030;-59
2021/01/10 05:21:43;;;;;;;160.48;29.00;;;;;;;;;;4988542;28;20407;-59
2021/01/10 05:24:09;;;;;;;142.23;27.60;;;;;;;;;;4990344;28;20262;-59
2021/01/10 05:26:39;;;;;;;157.45;29.92;;;;;;;;;;4991685;28;20034;-58
2021/01/10 05:29:05;;;;;;;152.40;29.40;;;;;;;;;;4992768;28;20044;-59
2021/01/10 05:31:32;;;;;;;151.95;29.70;;;;;;;;;;4990117;28;20038;-59
2021/01/10 05:33:58;;;;;;;150.38;29.50;;;;;;;;;;4985881;28;20065;-59
2021/01/10 05:36:28;;;;;;;173.15;30.88;;;;;;;;;;4989607;28;20505;-59
2021/01/10 05:38:54;;;;;;;143.05;27.92;;;;;;;;;;4992386;28;20289;-59
2021/01/10 05:41:23;;;;;;;140.82;28.10;;;;;;;;;;4987247;28;20474;-59
2021/01/10 05:43:59;;;;;;;142.93;29.33;;;;;;;;;;4987620;28;20049;-59
2021/01/10 05:46:26;;;;;;;142.30;27.33;;;;;;;;;;4991814;28;20376;-59
2021/01/10 05:48:52;;;;;;;151.10;28.75;;;;;;;;;;4988306;28;20038;-59
2021/01/10 05:51:18;;;;;;;136.57;26.42;;;;;;;;;;4988414;28;20034;-59
2021/01/10 05:53:47;;;;;;;152.77;27.80;;;;;;;;;;4986078;28;20562;-59
2021/01/10 05:56:13;;;;;;;124.45;26.90;;;;;;;;;;4987518;28;20038;-59
2021/01/10 05:58:39;;;;;;;142.50;28.20;;;;;;;;;;4986611;28;20065;-59
2021/01/10 06:01:13;;;;;;;160.20;27.25;;;;;;;;;;4986089;28;20045;-59
2021/01/10 06:03:39;;;;;;;145.13;26.02;;;;;;;;;;4989124;28;20100;-59
2021/01/10 06:06:06;;;;;;;139.63;26.65;;;;;;;;;;4992142;28;20046;-59
2021/01/10 06:08:32;;;;;;;149.75;28.05;;;;;;;;;;4988641;28;20096;-59
2021/01/10 06:11:18;;;;;;;136.77;25.67;;;;;;;;;;4989441;28;20112;-59
2021/01/10 06:13:47;;;;;;;126.30;25.48;;;;;;;;;;4989890;28;20132;-59
2021/01/10 06:16:14;;;;;;;144.93;26.52;;;;;;;;;;4990575;28;20396;-59
2021/01/10 06:18:42;;;;;;;147.55;26.67;;;;;;;;;;4994870;28;20042;-59
2021/01/10 06:21:16;;;;;;;136.35;26.90;;;;;;;;;;4988811;28;20034;-59
2021/01/10 06:23:43;;;;;;;151.00;26.80;;;;;;;;;;4987086;28;20060;-59
2021/01/10 06:26:09;;;;;;;139.45;26.85;;;;;;;;;;4986833;28;20058;-59
2021/01/10 06:28:37;;;;;;;117.40;25.90;;;;;;;;;;4987359;28;21027;-59
2021/01/10 06:31:04;;;;;;;139.13;26.33;;;;;;;;;;4985167;28;20070;-59
2021/01/10 06:33:34;;;;;;;141.82;25.85;;;;;;;;;;4990955;28;20034;-59
2021/01/10 06:36:07;;;;;;;164.35;27.10;;;;;;;;;;4985609;28;20391;-59
2021/01/10 06:38:34;;;;;;;131.02;25.60;;;;;;;;;;4992236;28;20042;-59
2021/01/10 06:41:19;;;;;;;128.40;26.27;;;;;;;;;;4987176;28;20045;-59
2021/01/10 06:43:45;;;;;;;137.75;26.08;;;;;;;;;;4987627;28;20585;-58
2021/01/10 06:46:11;;;;;;;128.90;25.10;;;;;;;;;;4985522;28;20030;-59
2021/01/10 06:48:37;;;;;;;161.68;26.35;;;;;;;;;;4991837;28;20076;-59
2021/01/10 06:51:04;;;;;;;117.90;25.02;;;;;;;;;;4987679;28;20124;-59
2021/01/10 06:53:31;;;;;;;149.65;28.48;;;;;;;;;;4990063;28;20038;-59
2021/01/10 06:55:57;;;;;;;151.57;26.48;;;;;;;;;;4989958;28;20038;-59
2021/01/10 06:58:23;;;;;;;128.95;26.33;;;;;;;;;;4992812;28;20048;-59
2021/01/10 07:00:59;;;;;;;121.43;25.85;;;;;;;;;;4990458;28;20038;-59
2021/01/10 07:03:25;;;;;;;125.28;25.83;;;;;;;;;;4988026;28;20046;-58
2021/01/10 07:06:02;;;;;;;132.27;26.83;;;;;;;;;;4990806;28;20034;-59
2021/01/10 07:08:31;;;;;;;124.82;25.50;;;;;;;;;;4994129;28;20042;-59
2021/01/10 07:10:57;;;;;;;143.68;25.77;;;;;;;;;;4993474;28;20061;-59
2021/01/10 07:13:29;;;;;;;144.02;27.80;;;;;;;;;;4995724;28;20041;-59
2021/01/10 07:16:17;;;;;;;154.38;26.75;;;;;;;;;;4993812;28;21548;-58
2021/01/10 07:19:12;;;;;;;157.60;27.27;;;;;;;;;;4991230;28;20133;-59
2021/01/10 07:21:44;;;;;;;143.60;27.33;;;;;;;;;;4991659;28;20122;-59
2021/01/10 07:24:13;;;;;;;163.55;28.52;;;;;;;;;;4990366;28;20523;-59
2021/01/10 07:26:41;;;;;;;161.82;28.05;;;;;;;;;;4992508;28;20042;-59
2021/01/10 07:29:26;;;;;;;159.38;28.58;;;;;;;;;;4991846;28;20041;-60
2021/01/10 07:31:57;;;;;;;156.68;28.45;;;;;;;;;;4993694;28;20038;-59
2021/01/10 07:34:24;;;;;;;163.43;27.80;;;;;;;;;;4992918;28;20446;-59
2021/01/10 07:36:51;;;;;;;160.10;27.80;;;;;;;;;;4988846;28;20085;-59
2021/01/10 07:39:19;;;;;;;166.57;28.40;;;;;;;;;;4991534;28;20058;-59
2021/01/10 07:41:45;;;;;;;164.35;29.27;;;;;;;;;;4992258;28;20038;-58
2021/01/10 07:44:11;;;;;;;156.18;26.98;;;;;;;;;;4990502;28;20456;-59
2021/01/10 07:46:53;;;;;;;163.93;27.58;;;;;;;;;;4989768;28;20542;-59
2021/01/10 07:49:20;;;;;;;158.15;27.52;;;;;;;;;;4985096;28;20046;-59
2021/01/10 07:51:46;;;;;;;166.45;27.95;;;;;;;;;;4986021;28;20037;-59
2021/01/10 07:54:12;;;;;;;166.93;30.60;;;;;;;;;;4987823;28;20038;-59
2021/01/10 07:56:38;;;;;;;158.00;26.30;;;;;;;;;;4989010;28;20488;-58
2021/01/10 07:59:17;;;;;;;153.85;27.45;;;;;;;;;;4985748;28;20033;-58
2021/01/10 08:01:52;;;;;;;156.50;27.00;;;;;;;;;;4985123;28;20133;-58
2021/01/10 08:04:31;;;;;;;171.80;28.85;;;;;;;;;;4984072;28;20041;-59
2021/01/10 08:06:57;;;;;;;173.98;29.17;;;;;;;;;;4985462;28;20039;-59
2021/01/10 08:09:26;;;;;;;187.05;29.10;;;;;;;;;;4984022;28;20104;-59
2021/01/10 08:11:55;;;;;;;177.93;29.30;;;;;;;;;;4988948;28;21428;-58
2021/01/10 08:14:21;;;;;;;149.75;27.85;;;;;;;;;;4992489;28;20496;-59
2021/01/10 08:16:47;;;;;;;123.03;24.35;;;;;;;;;;4984972;28;20061;-59
2021/01/10 08:19:13;;;;;;;123.38;25.15;;;;;;;;;;4987038;28;20495;-59
2021/01/10 08:21:39;;;;;;;115.65;23.35;;;;;;;;;;4987810;28;20046;-59
2021/01/10 08:24:06;;;;;;;110.35;22.42;;;;;;;;;;4989005;28;20042;-58
2021/01/10 08:26:37;;;;;;;130.18;23.25;;;;;;;;;;4992414;28;20030;-59
2021/01/10 08:29:06;;;;;;;116.40;23.70;;;;;;;;;;4991526;28;20104;-59
2021/01/10 08:31:33;;;;;;;100.47;20.95;;;;;;;;;;4990439;28;20364;-58
2021/01/10 08:33:59;;;;;;;129.02;23.27;;;;;;;;;;4995109;28;20065;-58
2021/01/10 08:36:25;;;;;;;100.78;21.80;;;;;;;;;;4994276;28;20128;-58
2021/01/10 08:39:10;;;;;;;125.20;24.60;;;;;;;;;;4990149;28;20046;-58
2021/01/10 08:41:37;;;;;;;106.22;22.70;;;;;;;;;;4986820;28;20069;-59
2021/01/10 08:44:04;;;;;;;113.53;23.83;;;;;;;;;;4993511;28;20038;-58
2021/01/10 08:46:37;;;;;;;97.32;22.77;;;;;;;;;;4996696;28;20598;-59
2021/01/10 08:49:03;;;;;;;119.28;23.38;;;;;;;;;;4997048;28;20545;-59
2021/01/10 08:51:32;;;;;;;109.97;22.73;;;;;;;;;;4997565;28;20130;-58
2021/01/10 08:53:59;;;;;;;127.30;24.52;;;;;;;;;;4983521;28;20116;-59
2021/01/10 08:56:25;;;;;;;103.25;22.75;;;;;;;;;;4998232;28;20113;-58
2021/01/10 08:58:55;;;;;;;86.60;23.15;;;;;;;;;;4993293;28;20054;-58
2021/01/10 09:01:25;;;;;;;110.85;23.50;;;;;;;;;;4995006;28;20069;-59
2021/01/10 09:03:58;;;;;;;98.68;23.25;;;;;;;;;;4997951;28;20046;-59
2021/01/10 09:06:26;;;;;;;89.18;22.10;;;;;;;;;;4996900;28;20418;-58
2021/01/10 09:08:55;;;;;;;88.38;22.30;;;;;;;;;;5000889;28;20040;-59
2021/01/10 09:11:23;;;;;;;104.32;22.90;;;;;;;;;;5000173;28;20049;-59
2021/01/10 09:13:51;;;;;;;95.60;24.65;;;;;;;;;;4996540;28;20037;-59
2021/01/10 09:16:17;;;;;;;100.28;23.45;;;;;;;;;;5000237;28;20038;-59
2021/01/10 09:18:47;;;;;;;98.18;22.75;;;;;;;;;;4995917;28;20491;-59
2021/01/10 09:21:14;;;;;;;86.45;22.45;;;;;;;;;;4997630;28;20053;-59
2021/01/10 09:23:51;;;;;;;95.15;23.98;;;;;;;;;;5000197;28;20070;-58
2021/01/10 09:26:43;;;;;;;88.63;23.05;;;;;;;;;;4994649;28;20045;-59
2021/01/10 09:29:17;;;;;;;105.75;24.67;;;;;;;;;;4980485;28;20038;-59
2021/01/10 09:31:45;;;;;;;91.63;22.77;;;;;;;;;;4995399;28;20038;-59
2021/01/10 09:34:11;;;;;;;97.47;23.55;;;;;;;;;;4993478;28;20511;-59
2021/01/10 09:36:37;;;;;;;97.40;24.85;;;;;;;;;;4994714;28;20484;-59
2021/01/10 09:39:04;;;;;;;74.70;21.33;;;;;;;;;;4996954;28;20030;-59
2021/01/10 09:41:30;;;;;;;88.75;22.77;;;;;;;;;;4995532;28;20423;-62
2021/01/10 09:43:58;;;;;;;80.15;24.15;;;;;;;;;;4988904;28;20045;-59
2021/01/10 09:46:39;;;;;;;84.18;24.17;;;;;;;;;;4994495;28;20096;-59
2021/01/10 09:49:16;;;;;;;88.50;23.30;;;;;;;;;;4990904;28;20036;-59
2021/01/10 09:51:43;;;;;;;87.43;24.00;;;;;;;;;;4986341;28;20551;-58
2021/01/10 09:54:12;;;;;;;77.43;23.67;;;;;;;;;;4984681;28;20037;-58
2021/01/10 09:56:38;;;;;;;80.80;22.27;;;;;;;;;;4986076;28;20329;-58
2021/01/10 09:59:05;;;;;;;85.40;24.77;;;;;;;;;;4986152;28;20153;-58
2021/01/10 10:01:37;;;;;;;97.47;25.13;;;;;;;;;;4993875;28;20046;-59
2021/01/10 10:04:06;;;;;;;90.25;23.95;;;;;;;;;;5006215;28;20092;-59
2021/01/10 10:06:51;;;;;;;86.80;24.20;;;;;;;;;;4995570;28;20395;-59
2021/01/10 10:09:17;;;;;;;87.78;24.75;;;;;;;;;;4987684;28;20080;-58
2021/01/10 10:11:43;;;;;;;85.35;25.27;;;;;;;;;;4999642;28;20537;-58
2021/01/10 10:14:09;;;;;;;95.15;25.58;;;;;;;;;;4993526;28;20039;-59
2021/01/10 10:16:35;;;;;;;92.78;25.48;;;;;;;;;;4996701;28;20121;-59
2021/01/10 10:19:01;;;;;;;108.28;26.35;;;;;;;;;;4996848;28;20045;-59
2021/01/10 10:21:27;;;;;;;90.05;25.60;;;;;;;;;;4996629;28;20042;-59
2021/01/10 10:23:53;;;;;;;95.15;24.80;;;;;;;;;;4996081;28;20391;-60
2021/01/10 10:26:19;;;;;;;97.85;23.52;;;;;;;;;;4993191;28;20165;-59
2021/01/10 10:28:45;;;;;;;103.43;24.75;;;;;;;;;;4995240;28;20041;-59
2021/01/10 10:31:12;;;;;;;100.88;25.92;;;;;;;;;;4993970;28;20042;-59
2021/01/10 10:33:38;;;;;;;93.30;24.85;;;;;;;;;;4993898;28;20030;-59
2021/01/10 10:36:04;;;;;;;85.18;24.35;;;;;;;;;;5002200;28;20041;-59
2021/01/10 10:38:31;;;;;;;101.90;24.70;;;;;;;;;;4999018;28;20442;-59
2021/01/10 10:40:57;;;;;;;92.05;24.67;;;;;;;;;;4999568;28;20030;-59
2021/01/10 10:43:23;;;;;;;85.28;24.75;;;;;;;;;;4999922;28;20050;-59
2021/01/10 10:45:49;;;;;;;99.97;24.83;;;;;;;;;;4993140;28;20034;-59
2021/01/10 10:48:15;;;;;;;82.63;22.50;;;;;;;;;;5001270;28;20053;-59
2021/01/10 10:50:41;;;;;;;98.97;23.35;;;;;;;;;;4993303;28;21779;-59
2021/01/10 10:53:08;;;;;;;101.50;24.98;;;;;;;;;;4980173;28;20046;-59
2021/01/10 10:55:34;;;;;;;86.03;24.45;;;;;;;;;;4989360;28;20145;-59
2021/01/10 10:58:00;;;;;;;81.47;26.88;;;;;;;;;;4993584;28;20064;-59
2021/01/10 11:00:26;;;;;;;87.90;28.30;;;;;;;;;;4989237;28;20081;-59
2021/01/10 11:02:53;;;;;;;97.40;29.05;;;;;;;;;;4991953;28;20120;-59
2021/01/10 11:05:22;;;;;;;80.93;25.90;;;;;;;;;;4994234;28;20042;-60
2021/01/10 11:07:48;;;;;;;75.72;24.58;;;;;;;;;;4994002;28;20034;-59
2021/01/10 11:10:14;;;;;;;70.15;24.20;;;;;;;;;;4991962;28;20060;-59
2021/01/10 11:12:40;;;;;;;68.10;24.55;;;;;;;;;;4994984;28;20033;-59
2021/01/10 11:15:08;;;;;;;83.57;25.33;;;;;;;;;;4987159;28;20034;-59
2021/01/10 11:17:34;;;;;;;70.72;23.83;;;;;;;;;;4994743;28;20503;-59
2021/01/10 11:20:02;;;;;;;67.93;23.98;;;;;;;;;;4991113;28;20049;-59
2021/01/10 11:22:34;;;;;;;65.28;21.90;;;;;;;;;;4983211;28;20306;-59
2021/01/10 11:25:00;;;;;;;56.25;20.80;;;;;;;;;;4984795;28;22155;-60
2021/01/10 11:27:26;;;;;;;52.13;20.55;;;;;;;;;;4986358;28;20117;-59
2021/01/10 11:29:52;;;;;;;44.28;17.90;;;;;;;;;;4986040;28;20045;-61
2021/01/10 11:32:18;;;;;;;51.67;18.65;;;;;;;;;;4990787;28;20036;-59
2021/01/10 11:34:44;;;;;;;42.83;17.63;;;;;;;;;;4988719;28;20042;-59
2021/01/10 11:37:12;;;;;;;40.03;17.33;;;;;;;;;;4991179;28;20093;-59
2021/01/10 11:39:38;;;;;;;38.17;15.65;;;;;;;;;;4989499;28;20041;-61
2021/01/10 11:42:04;;;;;;;36.75;14.73;;;;;;;;;;4983845;28;20038;-59
2021/01/10 11:44:30;;;;;;;33.75;15.13;;;;;;;;;;4996529;28;20048;-59
2021/01/10 11:46:56;;;;;;;34.35;15.32;;;;;;;;;;4988573;28;20121;-59
2021/01/10 11:49:22;;;;;;;37.58;15.65;;;;;;;;;;4993875;28;20034;-59
2021/01/10 11:51:49;;;;;;;27.05;14.05;;;;;;;;;;4994024;28;20038;-59
2021/01/10 11:54:15;;;;;;;33.17;14.93;;;;;;;;;;4995132;28;20395;-59
2021/01/10 11:56:42;;;;;;;34.08;14.05;;;;;;;;;;4990798;28;20121;-59
2021/01/10 11:59:08;;;;;;;30.55;13.18;;;;;;;;;;4999741;28;20136;-59
2021/01/10 12:01:34;;;;;;;24.70;11.98;;;;;;;;;;4994820;28;20096;-59
2021/01/10 12:04:01;;;;;;;30.10;11.60;;;;;;;;;;4997208;28;20121;-59
2021/01/10 12:06:27;;;;;;;31.50;12.23;;;;;;;;;;4995745;28;20090;-61
2021/01/10 12:08:53;;;;;;;22.42;11.07;;;;;;;;;;4999386;28;20081;-59
2021/01/10 12:11:19;;;;;;;19.25;11.20;;;;;;;;;;5001866;28;20480;-60
2021/01/10 12:13:45;;;;;;;26.75;12.20;;;;;;;;;;5000118;28;20037;-59
2021/01/10 12:16:12;;;;;;;20.25;11.27;;;;;;;;;;5004940;28;20486;-59
2021/01/10 12:18:40;;;;;;;19.63;11.02;;;;;;;;;;4997876;28;20043;-60
2021/01/10 12:21:06;;;;;;;22.60;11.45;;;;;;;;;;4993711;28;20096;-59
2021/01/10 12:23:32;;;;;;;22.17;10.57;;;;;;;;;;4991953;28;20653;-60
2021/01/10 12:25:58;;;;;;;20.85;10.52;;;;;;;;;;4990336;28;20034;-59
2021/01/10 12:28:24;;;;;;;19.50;10.40;;;;;;;;;;4992717;28;20525;-59
2021/01/10 12:30:50;;;;;;;23.23;9.98;;;;;;;;;;4996158;28;20049;-59
2021/01/10 12:33:16;;;;;;;19.58;9.63;;;;;;;;;;4996322;28;20068;-59
2021/01/10 12:35:42;;;;;;;17.23;10.50;;;;;;;;;;4995337;28;20053;-59
2021/01/10 12:38:08;;;;;;;20.35;9.27;;;;;;;;;;4996881;28;20653;-59
2021/01/10 12:40:34;;;;;;;16.90;9.20;;;;;;;;;;4997114;28;20030;-59
2021/01/10 12:43:00;;;;;;;16.08;8.93;;;;;;;;;;4994210;28;20034;-59
2021/01/10 12:45:26;;;;;;;18.50;8.90;;;;;;;;;;4996108;28;20042;-59
2021/01/10 12:47:52;;;;;;;22.40;8.85;;;;;;;;;;4994192;28;20071;-59
2021/01/10 12:50:18;;;;;;;14.55;8.90;;;;;;;;;;4999050;28;20607;-59
2021/01/10 12:52:44;;;;;;;14.57;7.97;;;;;;;;;;4992854;28;20405;-60
2021/01/10 12:55:11;;;;;;;18.38;7.80;;;;;;;;;;4998485;28;20082;-59
2021/01/10 12:57:37;;;;;;;18.38;7.43;;;;;;;;;;4996492;28;20030;-59
2021/01/10 13:00:11;;;;;;;14.55;8.65;;;;;;;;;;4993368;28;20264;-59
2021/01/10 13:02:40;;;;;;;12.30;6.97;;;;;;;;;;4984652;28;20041;-59
2021/01/10 13:05:09;;;;;;;14.05;6.47;;;;;;;;;;4991211;28;20049;-59
2021/01/10 13:07:35;;;;;;;14.25;7.10;;;;;;;;;;4988347;28;20465;-59
2021/01/10 13:10:01;;;;;;;14.63;7.38;;;;;;;;;;4995967;28;20056;-59
2021/01/10 13:12:30;;;;;;;12.35;5.70;;;;;;;;;;4988309;28;20399;-59
2021/01/10 13:14:56;;;;;;;13.27;5.60;;;;;;;;;;4996980;28;20086;-59
2021/01/10 13:17:22;;;;;;;15.82;6.32;;;;;;;;;;4997885;28;20605;-59
2021/01/10 13:19:48;;;;;;;12.82;5.47;;;;;;;;;;4991823;28;20060;-59
2021/01/10 13:22:14;;;;;;;10.60;5.32;;;;;;;;;;4986379;28;20042;-59
2021/01/10 13:24:40;;;;;;;10.27;5.50;;;;;;;;;;4991568;28;20050;-59
2021/01/10 13:27:06;;;;;;;16.25;6.10;;;;;;;;;;4997576;28;20041;-59
2021/01/10 13:29:32;;;;;;;11.27;5.68;;;;;;;;;;4989443;28;20045;-59
2021/01/10 13:32:00;;;;;;;10.93;5.57;;;;;;;;;;4990193;28;20049;-59
2021/01/10 13:34:26;;;;;;;10.13;5.30;;;;;;;;;;4989254;28;20030;-59
2021/01/10 13:36:56;;;;;;;13.15;5.25;;;5.80;58.60;;;;;;4990671;28;20545;-59
2021/01/10 13:39:21;;;;;;;14.10;5.43;;;;;;;;;;4985388;28;20074;-59
2021/01/10 13:41:47;;;;;;;10.20;5.18;;;;;;;;;;4980649;28;20113;-59
2021/01/10 13:44:13;;;;;;;14.55;6.00;;;;;;;;;;4980746;28;20081;-59
2021/01/10 13:46:39;;;;;;;13.02;5.95;;;12.30;54.10;;;;;;4980045;28;20038;-59
2021/01/10 13:49:05;;;;;;;9.25;5.85;;;11.20;54.30;;;;;;4982116;28;20046;-59
2021/01/10 13:51:31;;;;;;;14.43;6.18;;;10.90;54.50;;;;;;4984601;28;20395;-59
2021/01/10 13:53:56;;;;;;;18.98;6.40;;;10.70;55.00;;;;;;4989379;28;20034;-60
2021/01/10 13:56:24;;;;;;;12.13;5.95;;;10.50;55.20;;;;;;4993420;28;20049;-59
2021/01/10 13:58:51;;;;;;;13.25;6.63;;;10.30;55.60;;;;;;4991896;28;20038;-59
2021/01/10 14:01:17;;;;;;;10.93;6.20;;;10.20;55.90;;;;;;4992288;28;20041;-59
2021/01/10 14:03:44;;;;;;;10.77;6.55;;;10.00;56.20;;;;;;4991033;28;20039;-59
2021/01/10 14:06:20;;;;;;;15.65;7.18;;;10.00;56.50;;;;;;4990866;28;20388;-60
2021/01/10 14:08:46;;;;;;;14.68;7.70;;;9.90;56.80;;;;;;4982624;28;20042;-59